This is the latest recevied weather packets stored in our database for station/object OE6JUE. If no packets are shown the sender has not sent any weather packets the latest 10 day(s).
| Time | Temp. | Humidity | Pressure | Rain* | Wind** | Luminosity | Snow |
|---|---|---|---|---|---|---|---|
| 1777660723 | 15.56° C | 42% | 1026.6 hPa | 0 mm | - | - | - |
| 1777660122 | 16.11° C | 41% | 1026.4 hPa | 0 mm | - | - | - |
| 1777659822 | 16.11° C | 40% | 1026.4 hPa | 0 mm | - | - | - |
| 1777659522 | 16.67° C | 40% | 1026.4 hPa | 0 mm | - | - | - |
| 1777659223 | 16.67° C | 39% | 1026.2 hPa | 0 mm | - | - | - |
| 1777658923 | 16.67° C | 38% | 1026.2 hPa | 0 mm | - | - | - |
| 1777656822 | 17.78° C | 32% | 1025.8 hPa | 0 mm | - | - | - |
| 1777653413 | 19.44° C | 30% | 1025.6 hPa | 0 mm | - | - | - |
| 1777653117 | 19.44° C | 30% | 1025.6 hPa | 0 mm | - | - | - |
| 1777652814 | 20° C | 28% | 1025.6 hPa | 0 mm | - | - | - |
| 1777652513 | 20.56° C | 27% | 1025.6 hPa | 0 mm | - | - | - |
| 1777652214 | 22.22° C | 26% | 1025.8 hPa | 0 mm | - | - | - |
| 1777651913 | 21.67° C | 27% | 1025.7 hPa | 0 mm | - | - | - |
| 1777651613 | 21.67° C | 27% | 1025.7 hPa | 0 mm | - | - | - |
| 1777651313 | 21.11° C | 27% | 1025.8 hPa | - | - | - | - |
| 1777651013 | 21.67° C | 25% | 1025.7 hPa | 0 mm | - | - | - |
| 1777650713 | 22.78° C | 23% | 1025.7 hPa | 0 mm | - | - | - |
| 1777650113 | 21.67° C | 26% | 1025.8 hPa | 0 mm | - | - | - |
| 1777649813 | 21.11° C | 26% | 1025.8 hPa | 0 mm | - | - | - |
| 1777649513 | 21.67° C | 26% | 1025.8 hPa | 0 mm | - | - | - |
| 1777649213 | 22.22° C | 25% | 1026 hPa | 0 mm | - | - | - |
| 1777648913 | 22.22° C | 25% | 1026 hPa | 0 mm | - | - | - |
| 1777648613 | 22.22° C | 26% | 1025.9 hPa | 0 mm | - | - | - |
| 1777648313 | 21.67° C | 25% | 1026.1 hPa | 0 mm | - | - | - |
| 1777648013 | 22.22° C | 26% | 1026.1 hPa | 0 mm | - | - | - |
* Rain latest hour (hover to see other rain measurements)
** Current wind speed in m/s (hover to see current wind gust speed)